Airfield :
LOGIN :

Register | Disclaimer

   EN    FR    IT 

 










Legend :    VFR   Marginal VFR   IFR   Intensive IFR   Very Intensive IFR
Visi :
Ceiling :
>= 8 km
>= 3000ft
5 to 8 km
1000 to 3000 ft
1500m to 5 km
500 to 1000 ft
800 to 1500m
200 to 500 ft
< 800m
< 200 ft
Symbols :   Thunderstorms  Fog  Heavy snow  Heavy precipitations  Wind > 20 kt
SIGMETs :     Misc.  Thunderstorms  Icing  Turbulence  Mountain Waves  Volcanic Ashes







- Airport Elevation : 26 ft


ETNT - Wittmundhaven AB

CURRENT METAR :
  • 230820Z 19018G30KT 9999 SCT090 11/04 Q0994 BLU+BLU TEMPO WHT

EXPIRED METARs :
  • 230720Z 19018KT 9999 FEW028 BKN120 11/04 Q0994 BLU BLU
  • 230620Z 19017G27KT 9999 BKN170 11/04 Q0995 BLU BLU

TAF COR TAF ETNT
Valid from the 23 at 09:00 until the 23 at 18:00 UTC


230844Z 2309/2318 20015G28KT 9999 NSW BKN120
TEMPO 2309/2315 21020G35KT 7000 -SHRA BKN020
PROB30 2312/2315 21020G35KT 4000 SHRA BKN010 BKN020TCU
TEMPO 2315/2318 24015G28KT 9999 NSW SCT020 SCT120 BY ETGL
No reported NOTAMs for that airfield.



MET'MAP, your aeronautical weather chart ! - Copyright ORBIFLY December 2007 - Disclaimer

ORBIFLY MET'MAP TEAM :

Programming & Development : Alexandra Zaïnal
Concept & Development : Baudouin d'Aumeries
Co-Development & Prog : Marc-Olivier Méhu
Technical & hardware support : Manuel Goepfert

Contact : metmap@orbifly.com




SOURCES & CREDITS :

   NOAA